Time;durP1;ratioP1;P1;durP2;ratioP2;P2;SDS_P1;SDS_P2;PMS_P1;PMS_P2;Temp;Humidity;BMP_temperature;BMP_pressure;BME280_temperature;BME280_humidity;BME280_pressure;Samples;Min_cycle;Max_cycle;Signal;HPM_P1;HPM_P2
2021/03/09 00:04:56;;;;;;;14.57;7.93;;;;;;;;;;10561097;27;20287;-75
2021/03/09 00:09:58;;;;;;;15.57;8.70;;;;;;;;;;10582305;27;20241;-76
2021/03/09 00:15:00;;;;;;;14.67;8.13;;;;;;;;;;10577067;27;20211;-75
2021/03/09 00:20:08;;;;;;;17.47;9.13;;;;;;;;;;10575879;27;20241;-75
2021/03/09 00:25:10;;;;;;;14.17;8.00;;;;;;;;;;10566697;27;20193;-76
2021/03/09 00:30:12;;;;;;;16.80;9.00;;;;;;;;;;10569922;28;20276;-75
2021/03/09 00:35:15;;;;;;;15.80;7.90;;;;;;;;;;10571105;28;20210;-77
2021/03/09 00:40:16;;;;;;;18.10;8.33;;;;;;;;;;10559726;28;20282;-77
2021/03/09 00:45:18;;;;;;;16.90;9.57;;;;;;;;;;10578742;28;20270;-75
2021/03/09 00:50:31;;;;;;;19.87;8.73;;;;;;;;;;10583681;28;20233;-75
2021/03/09 00:55:32;;;;;;;17.03;8.93;;;;;;;;;;10548885;28;20262;-75
2021/03/09 01:00:34;;;;;;;16.03;8.77;;;;;;;;;;10555613;28;20614;-75
2021/03/09 01:05:36;;;;;;;17.30;9.40;;;;;;;;;;10584213;27;20277;-74
2021/03/09 01:10:38;;;;;;;19.17;9.83;;;;;;;;;;10564227;27;20231;-76
2021/03/09 01:15:40;;;;;;;17.00;9.40;;;;;;;;;;10583498;27;20204;-76
2021/03/09 01:20:54;;;;;;;18.40;9.83;;;;;;;;;;10619843;27;20218;-76
2021/03/09 01:25:55;;;;;;;19.43;9.57;;;;;;;;;;10563099;27;20658;-76
2021/03/09 01:30:57;;;;;;;18.83;10.40;;;;;;;;;;10583308;27;20233;-76
2021/03/09 01:35:59;;;;;;;18.27;10.20;;;;;;;;;;10583242;27;20267;-76
2021/03/09 01:41:03;;;;;;;19.63;11.20;;;;;;;;;;10562270;27;20250;-77
2021/03/09 01:46:05;;;;;;;21.03;10.53;;;;;;;;;;10581991;27;20604;-75
2021/03/09 01:51:15;;;;;;;21.33;10.73;;;;;;;;;;10556279;27;20773;-76
2021/03/09 01:56:17;;;;;;;21.33;11.33;;;;;;;;;;10572461;28;20244;-76
2021/03/09 02:01:19;;;;;;;23.83;12.47;;;;;;;;;;10572531;27;20348;-76
2021/03/09 02:06:21;;;;;;;23.33;11.40;;;;;;;;;;10580017;27;21265;-77
2021/03/09 02:11:31;;;;;;;20.37;12.03;;;;;;;;;;10575851;27;20432;-76
2021/03/09 02:16:40;;;;;;;21.37;12.17;;;;;;;;;;10575213;27;20243;-76
2021/03/09 02:21:48;;;;;;;26.97;13.57;;;;;;;;;;10577499;27;20298;-76
2021/03/09 02:26:59;;;;;;;26.10;13.40;;;;;;;;;;10575447;27;20304;-76
2021/03/09 02:32:03;;;;;;;25.17;13.63;;;;;;;;;;10570063;27;20218;-75
2021/03/09 02:37:07;;;;;;;24.10;13.37;;;;;;;;;;10583350;27;20234;-75
2021/03/09 02:42:10;;;;;;;27.77;14.97;;;;;;;;;;10563357;27;20242;-76
2021/03/09 02:47:13;;;;;;;25.27;14.07;;;;;;;;;;10579538;27;20190;-75
2021/03/09 02:52:17;;;;;;;28.83;15.17;;;;;;;;;;10577226;27;20221;-74
2021/03/09 02:57:19;;;;;;;29.30;13.10;;;;;;;;;;10581227;27;20290;-75
2021/03/09 03:02:21;;;;;;;24.47;12.67;;;;;;;;;;10554861;28;20222;-75
2021/03/09 03:07:23;;;;;;;25.67;13.43;;;;;;;;;;10575829;27;20187;-78
2021/03/09 03:12:25;;;;;;;27.30;13.90;;;;;;;;;;10569148;27;20261;-78
2021/03/09 03:17:29;;;;;;;26.57;13.63;;;;;;;;;;10554884;28;20223;-76
2021/03/09 03:22:31;;;;;;;24.87;13.67;;;;;;;;;;10559436;27;20214;-77
2021/03/09 03:27:33;;;;;;;29.23;14.53;;;;;;;;;;10557195;27;20694;-76
2021/03/09 03:32:36;;;;;;;25.67;14.37;;;;;;;;;;10573603;27;20571;-75
2021/03/09 03:37:38;;;;;;;24.20;12.77;;;;;;;;;;10573188;27;20194;-76
2021/03/09 03:42:40;;;;;;;24.03;13.33;;;;;;;;;;10591274;27;20286;-77
2021/03/09 03:47:43;;;;;;;28.90;14.30;;;;;;;;;;10592323;27;20182;-77
2021/03/09 03:52:53;;;;;;;27.87;14.30;;;;;;;;;;10555110;27;20489;-78
2021/03/09 03:58:00;;;;;;;23.00;11.30;;;;;;;;;;10572480;27;20581;-77
2021/03/09 04:03:06;;;;;;;22.00;11.93;;;;;;;;;;10573633;27;20179;-77
2021/03/09 04:08:08;;;;;;;22.20;12.30;;;;;;;;;;10573260;27;20632;-77
2021/03/09 04:13:11;;;;;;;28.07;15.37;;;;;;;;;;10572610;27;20184;-77
2021/03/09 04:18:16;;;;;;;29.47;14.20;;;;;;;;;;10571357;28;20301;-77
2021/03/09 04:23:18;;;;;;;30.03;16.03;;;;;;;;;;10567891;27;20265;-76
2021/03/09 04:28:20;;;;;;;33.47;16.20;;;;;;;;;;10575742;27;20290;-76
2021/03/09 04:33:26;;;;;;;30.87;15.33;;;;;;;;;;10569105;28;20639;-78
2021/03/09 04:38:28;;;;;;;24.23;12.53;;;;;;;;;;10578606;27;20219;-78
2021/03/09 04:43:30;;;;;;;26.33;12.83;;;;;;;;;;10578072;27;20680;-76
2021/03/09 04:48:32;;;;;;;26.97;14.93;;;;;;;;;;10583142;27;20296;-76
2021/03/09 04:53:34;;;;;;;30.03;14.90;;;;;;;;;;10583615;27;20230;-75
2021/03/09 04:58:37;;;;;;;30.47;15.40;;;;;;;;;;10582469;27;20662;-76
2021/03/09 05:03:39;;;;;;;29.57;14.30;;;;;;;;;;10577613;27;20203;-77
2021/03/09 05:08:41;;;;;;;29.27;14.10;;;;;;;;;;10579335;27;20215;-77
2021/03/09 05:13:43;;;;;;;26.03;13.50;;;;;;;;;;10578332;27;20199;-76
2021/03/09 05:18:45;;;;;;;25.50;12.67;;;;;;;;;;10583364;27;20531;-77
2021/03/09 05:23:53;;;;;;;31.63;14.67;;;;;;;;;;10583248;27;20397;-77
2021/03/09 05:28:59;;;;;;;28.80;14.93;;;;;;;;;;10575775;27;20211;-76
2021/03/09 05:34:03;;;;;;;25.73;13.70;;;;;;;;;;10580154;27;20245;-75
2021/03/09 05:39:05;;;;;;;26.33;14.13;;;;;;;;;;10557539;27;20215;-76
2021/03/09 05:44:07;;;;;;;30.27;14.00;;;;;;;;;;10584853;27;20223;-75
2021/03/09 05:49:10;;;;;;;27.13;13.43;;;;;;;;;;10584391;27;20245;-76
2021/03/09 05:54:24;;;;;;;29.57;15.23;;;;;;;;;;10584002;27;20211;-75
2021/03/09 05:59:26;;;;;;;29.53;16.00;;;;;;;;;;10574981;27;20265;-76
2021/03/09 06:04:31;;;;;;;25.47;13.83;;;;;;;;;;10572825;27;20260;-76
2021/03/09 06:09:37;;;;;;;23.77;12.60;;;;;;;;;;10585485;27;20276;-77
2021/03/09 06:14:40;;;;;;;20.17;11.00;;;;;;;;;;10581513;27;20240;-77
2021/03/09 06:19:47;;;;;;;19.17;10.20;;;;;;;;;;10557883;27;20218;-78
2021/03/09 06:24:48;;;;;;;18.27;9.37;;;;;;;;;;10577849;27;20274;-78
2021/03/09 06:29:50;;;;;;;15.77;8.90;;;;;;;;;;10561457;27;20249;-78
2021/03/09 06:34:53;;;;;;;14.37;8.70;;;;;;;;;;10563985;27;20198;-77
2021/03/09 06:39:55;;;;;;;16.67;8.57;;;;;;;;;;10574666;27;20260;-77
2021/03/09 06:44:58;;;;;;;17.03;8.70;;;;;;;;;;10550811;27;20199;-78
2021/03/09 06:50:04;;;;;;;17.43;9.40;;;;;;;;;;10589203;27;20263;-77
2021/03/09 06:55:07;;;;;;;14.87;8.83;;;;;;;;;;10596756;27;20234;-78
2021/03/09 07:00:11;;;;;;;17.07;8.97;;;;;;;;;;10575669;28;20235;-77
2021/03/09 07:05:14;;;;;;;16.87;9.17;;;;;;;;;;10579545;27;20204;-77
2021/03/09 07:10:16;;;;;;;15.90;9.30;;;;;;;;;;10593480;27;20207;-76
2021/03/09 07:15:19;;;;;;;14.50;9.37;;;;;;;;;;10581421;28;20187;-77
2021/03/09 07:20:21;;;;;;;15.33;10.20;;;;;;;;;;10580028;27;20227;-77
2021/03/09 07:25:25;;;;;;;13.83;9.13;;;;;;;;;;10550391;27;20195;-78
2021/03/09 07:30:28;;;;;;;14.47;10.07;;;;;;;;;;10571291;27;20207;-78
2021/03/09 07:35:30;;;;;;;13.13;9.57;;;;;;;;;;10564879;27;20187;-79
2021/03/09 07:40:33;;;;;;;16.90;10.40;;;;;;;;;;10560214;27;20241;-79
2021/03/09 07:45:36;;;;;;;14.23;9.70;;;;;;;;;;10570691;27;20612;-77
2021/03/09 07:50:38;;;;;;;14.33;10.10;;;;;;;;;;10565254;27;20223;-79
2021/03/09 07:55:39;;;;;;;13.70;10.23;;;;;;;;;;10554694;28;20730;-77
2021/03/09 08:00:48;;;;;;;16.13;11.63;;;;;;;;;;10551978;28;20218;-77
2021/03/09 08:05:54;;;;;;;15.93;10.80;;;;;;;;;;10561306;28;20728;-79
2021/03/09 08:10:55;;;;;;;17.00;11.47;;;;;;;;;;10567579;28;20211;-78
2021/03/09 08:16:24;;;;;;;15.73;11.30;;;;;;;;;;10553563;28;20223;-77
2021/03/09 08:21:47;;;;;;;14.73;10.57;;;;;;;;;;10566029;27;20223;-75
2021/03/09 08:26:49;;;;;;;16.83;10.90;;;;;;;;;;10558164;27;20559;-78
2021/03/09 08:31:50;;;;;;;15.67;11.70;;;;;;;;;;10542589;28;20207;-77
2021/03/09 08:36:53;;;;;;;13.38;11.15;;;;;;;;;;10569069;27;20872;-78
2021/03/09 08:42:03;;;;;;;17.25;12.07;;;;;;;;;;10562898;28;20237;-77
2021/03/09 08:47:06;;;;;;;14.98;12.13;;;;;;;;;;10549924;28;20191;-78
2021/03/09 08:52:09;;;;;;;17.45;12.38;;;;;;;;;;10553330;28;20672;-78
2021/03/09 08:57:11;;;;;;;16.40;12.50;;;;;;;;;;10552120;28;20529;-78
2021/03/09 09:02:14;;;;;;;16.88;12.35;;;;;;;;;;10554672;28;20219;-78
2021/03/09 09:07:21;;;;;;;16.60;12.20;;;;;;;;;;10559743;28;20179;-77
2021/03/09 09:12:27;;;;;;;14.02;12.30;;;;;;;;;;10538595;28;20301;-78
2021/03/09 09:17:29;;;;;;;16.13;12.85;;;;;;;;;;10559898;28;20666;-77
2021/03/09 09:22:31;;;;;;;15.02;12.52;;;;;;;;;;10548738;28;20222;-77
2021/03/09 09:27:44;;;;;;;16.85;12.35;;;;;;;;;;10570975;27;20304;-77
2021/03/09 09:32:49;;;;;;;16.70;13.23;;;;;;;;;;10575258;27;20186;-77
2021/03/09 09:37:53;;;;;;;14.57;12.90;;;;;;;;;;10572427;27;20211;-78
2021/03/09 09:43:03;;;;;;;15.95;12.25;;;;;;;;;;10544564;28;20631;-76
2021/03/09 09:48:05;;;;;;;14.32;11.80;;;;;;;;;;10565683;28;20329;-77
2021/03/09 09:53:11;;;;;;;14.18;11.85;;;;;;;;;;10566795;28;20187;-77
2021/03/09 09:58:13;;;;;;;15.95;12.02;;;;;;;;;;10551507;27;20214;-76
2021/03/09 10:03:15;;;;;;;13.75;12.20;;;;;;;;;;10553017;27;20689;-77
2021/03/09 10:08:32;;;;;;;16.48;12.73;;;;;;;;;;10574487;27;20215;-77
2021/03/09 10:13:34;;;;;;;13.35;10.85;;;;;;;;;;10575811;27;20221;-78
2021/03/09 10:18:37;;;;;;;13.55;11.32;;;;;;;;;;10564957;27;20686;-78
2021/03/09 10:23:53;;;;;;;14.70;10.90;;;;;;;;;;10589876;27;20257;-76
2021/03/09 10:29:22;;;;;;;14.40;10.80;;;;;;;;;;10544597;27;20214;-76
2021/03/09 10:34:34;;;;;;;11.88;9.55;;;;;;;;;;10553836;28;20539;-76
2021/03/09 10:39:37;;;;;;;12.57;10.13;;;;;;;;;;10571712;27;20215;-76
2021/03/09 10:44:39;;;;;;;14.27;11.13;;;;;;;;;;10562444;28;20242;-76
2021/03/09 10:49:42;;;;;;;11.60;9.07;;;;;;;;;;10568119;27;20226;-78
2021/03/09 10:54:43;;;;;;;10.32;8.70;;;;;;;;;;10556280;28;20199;-75
2021/03/09 10:59:59;;;;;;;12.43;7.95;;;;;;;;;;10569648;27;20593;-76
2021/03/09 11:05:05;;;;;;;9.43;7.07;;;;;;;;;;10554740;27;20199;-75
2021/03/09 11:10:08;;;;;;;9.25;5.88;;;;;;;;;;10535883;27;20370;-76
2021/03/09 11:15:11;;;;;;;9.55;6.80;;;;;;;;;;10559416;27;20195;-76
2021/03/09 11:20:13;;;;;;;10.05;7.10;;;;;;;;;;10544486;27;20291;-77
2021/03/09 11:25:14;;;;;;;11.18;6.90;;;;;;;;;;10556366;27;20671;-78
2021/03/09 11:30:18;;;;;;;11.10;6.70;;;;;;;;;;10569702;27;20294;-76
2021/03/09 11:35:19;;;;;;;11.15;7.03;;;;;;;;;;10558631;28;20607;-76
2021/03/09 11:40:21;;;;;;;12.13;7.90;;;;;;;;;;10531616;28;20725;-76
2021/03/09 11:45:23;;;;;;;10.87;7.20;;;;;;;;;;10558297;27;20209;-78
2021/03/09 11:50:25;;;;;;;11.47;7.03;;;;;;;;;;10566087;27;20707;-76
2021/03/09 11:55:27;;;;;;;9.47;6.80;;;;;;;;;;10562677;27;20271;-76
2021/03/09 12:00:30;;;;;;;10.13;6.60;;;;;;;;;;10578211;28;20223;-76
2021/03/09 12:05:31;;;;;;;9.65;6.57;;;;;;;;;;10560469;28;20199;-76
2021/03/09 12:10:33;;;;;;;10.35;6.13;;;;;;;;;;10561167;27;20586;-77
2021/03/09 12:15:37;;;;;;;8.93;6.38;;;;;;;;;;10570465;27;20195;-76
2021/03/09 12:20:38;;;;;;;10.38;6.70;;;;;;;;;;10562655;27;20222;-77
2021/03/09 12:25:40;;;;;;;11.00;6.78;;;;;;;;;;10546053;28;20298;-77
2021/03/09 12:30:44;;;;;;;10.20;6.77;;;;;;;;;;10564556;28;20218;-77
2021/03/09 12:35:45;;;;;;;9.03;6.50;;;;;;;;;;10574139;27;20187;-78
2021/03/09 12:40:52;;;;;;;10.63;6.83;;;;;;;;;;10549179;28;20863;-77
2021/03/09 12:45:54;;;;;;;11.13;6.70;;;;;;;;;;10572454;28;20210;-78
2021/03/09 12:50:56;;;;;;;9.90;6.50;;;;;;;;;;10560552;28;20222;-77
2021/03/09 12:55:57;;;;;;;10.17;6.80;;;;;;;;;;10560499;28;20373;-77
2021/03/09 13:00:59;;;;;;;10.27;6.87;;;;;;;;;;10567839;28;20230;-76
2021/03/09 13:06:03;;;;;;;10.47;6.33;;;;;;;;;;10548712;27;20198;-77
2021/03/09 13:11:05;;;;;;;9.67;6.57;;;;;;;;;;10573352;27;20302;-77
2021/03/09 13:16:08;;;;;;;10.40;6.40;;;;;;;;;;10563312;27;20720;-76
2021/03/09 13:21:09;;;;;;;9.50;6.13;;;;;;;;;;10576103;27;20223;-78
2021/03/09 13:26:11;;;;;;;11.70;6.50;;;;;;;;;;10560394;27;20199;-77
2021/03/09 13:31:15;;;;;;;10.10;7.07;;;;;;;;;;10573108;27;20333;-78
2021/03/09 13:36:17;;;;;;;9.60;6.23;;;;;;;;;;10563607;27;20847;-78
2021/03/09 13:41:18;;;;;;;10.90;6.30;;;;;;;;;;10559080;27;20264;-77
2021/03/09 13:46:22;;;;;;;11.47;6.87;;;;;;;;;;10568239;28;20195;-77
2021/03/09 13:51:24;;;;;;;10.07;6.50;;;;;;;;;;10568921;27;20539;-78
2021/03/09 13:56:25;;;;;;;11.40;6.43;;;;;;;;;;10550286;28;20209;-78
2021/03/09 14:01:28;;;;;;;10.63;6.37;;;;;;;;;;10564481;27;20269;-78
2021/03/09 14:06:29;;;;;;;9.80;6.03;;;;;;;;;;10570252;27;20195;-77
2021/03/09 14:11:31;;;;;;;11.10;6.37;;;;;;;;;;10567606;27;20214;-77
2021/03/09 14:16:34;;;;;;;9.97;5.73;;;;;;;;;;10574437;27;20207;-77
2021/03/09 14:21:36;;;;;;;10.70;5.97;;;;;;;;;;10570483;27;20223;-78
2021/03/09 14:26:38;;;;;;;10.57;6.33;;;;;;;;;;10569291;27;20502;-79
2021/03/09 14:31:40;;;;;;;9.97;6.13;;;;;;;;;;10568371;27;20343;-77
2021/03/09 14:36:43;;;;;;;10.53;6.07;;;;;;;;;;10569874;27;20203;-79
2021/03/09 14:41:44;;;;;;;11.30;6.37;;;;;;;;;;10558017;27;20299;-78
2021/03/09 14:46:47;;;;;;;11.90;6.30;;;;;;;;;;10565402;27;20226;-78
2021/03/09 14:51:48;;;;;;;11.73;6.30;;;;;;;;;;10564988;27;20330;-78
2021/03/09 14:56:50;;;;;;;11.20;6.80;;;;;;;;;;10561414;27;20620;-77
2021/03/09 15:01:52;;;;;;;10.77;6.23;;;;;;;;;;10562734;27;20674;-77
2021/03/09 15:06:54;;;;;;;11.80;6.40;;;;;;;;;;10562123;27;20588;-77
2021/03/09 15:11:56;;;;;;;10.43;6.20;;;;;;;;;;10564416;27;20211;-76
2021/03/09 15:16:59;;;;;;;10.30;6.03;;;;;;;;;;10540221;27;20765;-77
2021/03/09 15:22:03;;;;;;;10.73;6.37;;;;;;;;;;10543770;27;20230;-77
2021/03/09 15:27:05;;;;;;;18.73;7.03;;;;;;;;;;10541412;27;20191;-77
2021/03/09 15:32:08;;;;;;;11.17;5.73;;;;;;;;;;10572043;27;20223;-76
2021/03/09 15:37:10;;;;;;;11.43;6.60;;;;;;;;;;10555207;27;20214;-76
2021/03/09 15:42:26;;;;;;;12.37;6.73;;;;;;;;;;10552027;27;20256;-76
2021/03/09 15:47:28;;;;;;;10.93;6.37;;;;;;;;;;10572429;27;20215;-77
2021/03/09 15:52:31;;;;;;;13.47;8.10;;;;;;;;;;10553417;27;21512;-77
2021/03/09 15:57:33;;;;;;;12.80;6.50;;;;;;;;;;10563919;27;20203;-76
2021/03/09 16:02:35;;;;;;;11.00;6.50;;;;;;;;;;10565627;27;20287;-76
2021/03/09 16:07:37;;;;;;;10.47;6.00;;;;;;;;;;10568803;27;20273;-77
2021/03/09 16:12:40;;;;;;;13.13;6.50;;;;;;;;;;10571981;27;20299;-78
2021/03/09 16:17:44;;;;;;;10.50;5.80;;;;;;;;;;10552831;27;20226;-77
2021/03/09 16:22:46;;;;;;;10.10;6.10;;;;;;;;;;10557053;28;20197;-77
2021/03/09 16:27:49;;;;;;;10.57;5.73;;;;;;;;;;10537640;27;20206;-77
2021/03/09 16:32:51;;;;;;;10.87;6.30;;;;;;;;;;10561156;27;20218;-78
2021/03/09 16:37:53;;;;;;;10.57;6.30;;;;;;;;;;10555859;28;20269;-77
2021/03/09 16:42:55;;;;;;;12.33;6.13;;;;;;;;;;10548508;28;20733;-77
2021/03/09 16:47:57;;;;;;;13.57;6.70;;;;;;;;;;10550964;28;20183;-78
2021/03/09 16:52:59;;;;;;;11.67;6.40;;;;;;;;;;10546313;28;20252;-78
2021/03/09 16:58:03;;;;;;;11.07;6.03;;;;;;;;;;10524163;28;20230;-80
2021/03/09 17:03:06;;;;;;;11.23;5.87;;;;;;;;;;10572505;28;20195;-79
2021/03/09 17:08:10;;;;;;;11.77;6.33;;;;;;;;;;10587031;28;20198;-79
2021/03/09 17:13:12;;;;;;;12.87;6.10;;;;;;;;;;10569353;28;20187;-81
2021/03/09 17:18:15;;;;;;;12.40;6.60;;;;;;;;;;10594932;28;20211;-82
2021/03/09 17:23:16;;;;;;;12.70;7.30;;;;;;;;;;10557113;28;20210;-82
2021/03/09 17:28:18;;;;;;;13.43;7.67;;;;;;;;;;10568733;28;20222;-81
2021/03/09 17:33:21;;;;;;;13.23;7.43;;;;;;;;;;10580410;28;20195;-80
2021/03/09 17:38:23;;;;;;;13.67;7.57;;;;;;;;;;10592263;28;20219;-82
2021/03/09 17:43:25;;;;;;;13.93;8.00;;;;;;;;;;10576762;28;20210;-79
2021/03/09 17:48:30;;;;;;;13.57;8.00;;;;;;;;;;10572965;27;20225;-83
2021/03/09 17:53:31;;;;;;;14.33;8.03;;;;;;;;;;10586347;27;20191;-79
2021/03/09 17:58:33;;;;;;;16.67;7.93;;;;;;;;;;10582404;28;20219;-80
2021/03/09 18:03:36;;;;;;;13.80;7.70;;;;;;;;;;10573036;28;20292;-80
2021/03/09 18:08:39;;;;;;;12.13;7.53;;;;;;;;;;10594619;27;20210;-79
2021/03/09 18:13:42;;;;;;;13.50;7.57;;;;;;;;;;10570802;27;20198;-79
2021/03/09 18:18:45;;;;;;;13.10;7.67;;;;;;;;;;10601583;27;20215;-83
2021/03/09 18:23:46;;;;;;;12.67;7.50;;;;;;;;;;10612094;27;20298;-80
2021/03/09 18:28:48;;;;;;;15.00;8.60;;;;;;;;;;10580419;27;20252;-81
2021/03/09 18:33:51;;;;;;;16.30;8.27;;;;;;;;;;10599229;28;20195;-80
2021/03/09 18:38:53;;;;;;;15.23;8.10;;;;;;;;;;10594848;28;20215;-80
2021/03/09 18:43:55;;;;;;;16.57;8.00;;;;;;;;;;10586070;27;21066;-79
2021/03/09 18:48:57;;;;;;;13.53;8.23;;;;;;;;;;10581006;28;20206;-83
2021/03/09 18:54:00;;;;;;;14.60;7.93;;;;;;;;;;10558056;28;20434;-80
2021/03/09 18:59:04;;;;;;;17.10;8.53;;;;;;;;;;10590557;28;20229;-83
2021/03/09 19:04:07;;;;;;;14.83;8.80;;;;;;;;;;10606691;28;20191;-80
2021/03/09 19:09:08;;;;;;;15.80;8.87;;;;;;;;;;10607455;28;20215;-80
2021/03/09 19:14:10;;;;;;;14.60;8.30;;;;;;;;;;10611207;28;20197;-82
2021/03/09 19:19:13;;;;;;;13.80;9.35;;;;;;;;;;10604805;28;20443;-82
2021/03/09 19:24:15;;;;;;;14.10;8.30;;;;;;;;;;10601179;28;20307;-83
2021/03/09 19:29:16;;;;;;;14.10;8.80;;;;;;;;;;10591439;28;20210;-81
2021/03/09 19:34:19;;;;;;;14.00;8.00;;;;;;;;;;10588735;28;20218;-79
2021/03/09 19:39:21;;;;;;;13.83;7.73;;;;;;;;;;10570325;28;20226;-81
2021/03/09 19:44:22;;;;;;;13.07;7.97;;;;;;;;;;10532602;28;20299;-79
2021/03/09 19:49:25;;;;;;;13.70;8.43;;;;;;;;;;10516815;28;20208;-80
2021/03/09 19:54:27;;;;;;;15.63;9.13;;;;;;;;;;10511817;28;20188;-82
2021/03/09 19:59:30;;;;;;;15.20;8.67;;;;;;;;;;10502657;28;20224;-79
2021/03/09 20:04:34;;;;;;;15.77;8.97;;;;;;;;;;10502703;28;20268;-81
2021/03/09 20:09:36;;;;;;;14.27;8.93;;;;;;;;;;10505506;28;20675;-79
2021/03/09 20:14:38;;;;;;;16.97;8.90;;;;;;;;;;10507096;28;20278;-80
2021/03/09 20:19:40;;;;;;;15.37;8.87;;;;;;;;;;10511595;28;20302;-80
2021/03/09 20:24:42;;;;;;;14.90;9.10;;;;;;;;;;10508525;28;20521;-81
2021/03/09 20:29:45;;;;;;;16.07;9.43;;;;;;;;;;10507244;28;20277;-80
2021/03/09 20:34:57;;;;;;;16.63;9.37;;;;;;;;;;10501739;28;20571;-79
2021/03/09 20:39:58;;;;;;;16.00;9.67;;;;;;;;;;10529697;28;20223;-80
2021/03/09 20:45:02;;;;;;;16.67;9.77;;;;;;;;;;10488803;28;20200;-78
2021/03/09 20:50:09;;;;;;;16.10;9.37;;;;;;;;;;10504065;28;20262;-80
2021/03/09 20:55:11;;;;;;;16.77;9.67;;;;;;;;;;10517582;28;20321;-79
2021/03/09 21:00:16;;;;;;;16.70;9.87;;;;;;;;;;10516256;28;20223;-80
2021/03/09 21:05:21;;;;;;;18.67;12.03;;;;;;;;;;10519084;28;20279;-82
2021/03/09 21:10:24;;;;;;;17.07;9.87;;;;;;;;;;10528804;28;20207;-81
2021/03/09 21:15:27;;;;;;;16.97;9.73;;;;;;;;;;10507229;28;20196;-79
2021/03/09 21:20:30;;;;;;;17.27;9.67;;;;;;;;;;10525061;28;20223;-78
2021/03/09 21:25:32;;;;;;;16.73;8.97;;;;;;;;;;10522333;28;20294;-80
2021/03/09 21:30:35;;;;;;;18.47;10.77;;;;;;;;;;10540208;28;20500;-81
2021/03/09 21:35:47;;;;;;;19.23;11.43;;;;;;;;;;10525454;28;20241;-80
2021/03/09 21:40:49;;;;;;;20.67;11.90;;;;;;;;;;10540377;28;20599;-80
2021/03/09 21:45:51;;;;;;;19.33;10.03;;;;;;;;;;10535326;28;20206;-79
2021/03/09 21:50:54;;;;;;;13.13;7.37;;;;;;;;;;10516750;28;20698;-79
2021/03/09 21:55:56;;;;;;;21.20;11.83;;;;;;;;;;10529258;28;20207;-80
2021/03/09 22:00:58;;;;;;;23.30;13.03;;;;;;;;;;10520556;28;20231;-82
2021/03/09 22:06:03;;;;;;;18.77;9.43;;;;;;;;;;10552185;28;20219;-78
2021/03/09 22:11:05;;;;;;;22.73;12.63;;;;;;;;;;10536654;28;20232;-80
2021/03/09 22:16:07;;;;;;;24.07;13.87;;;;;;;;;;10543117;28;20229;-82
2021/03/09 22:21:09;;;;;;;25.53;14.77;;;;;;;;;;10547546;28;20227;-81
2021/03/09 22:26:11;;;;;;;23.27;14.97;;;;;;;;;;10550606;28;20247;-80
2021/03/09 22:31:13;;;;;;;24.30;14.20;;;;;;;;;;10526034;28;20215;-80
2021/03/09 22:36:31;;;;;;;24.03;14.63;;;;;;;;;;10540022;28;20188;-79
2021/03/09 22:41:33;;;;;;;24.77;14.70;;;;;;;;;;10539825;28;20660;-80
2021/03/09 22:46:34;;;;;;;24.20;14.23;;;;;;;;;;10539088;28;20196;-81
2021/03/09 22:51:37;;;;;;;26.60;15.73;;;;;;;;;;10537578;28;20216;-80
2021/03/09 22:56:39;;;;;;;21.47;11.47;;;;;;;;;;10534981;28;20259;-80
2021/03/09 23:01:40;;;;;;;23.33;14.67;;;;;;;;;;10547614;28;20239;-78
2021/03/09 23:06:55;;;;;;;24.70;14.67;;;;;;;;;;10529737;28;20306;-79
2021/03/09 23:11:57;;;;;;;27.92;20.92;;;;;;;;;;10539159;28;20436;-81
2021/03/09 23:16:59;;;;;;;26.87;16.63;;;;;;;;;;10553943;28;20191;-81
2021/03/09 23:22:03;;;;;;;26.43;15.17;;;;;;;;;;10547048;28;20291;-81
2021/03/09 23:27:05;;;;;;;25.07;14.23;;;;;;;;;;10529711;28;20666;-78
2021/03/09 23:32:08;;;;;;;26.70;16.13;;;;;;;;;;10559155;28;20212;-80
2021/03/09 23:37:16;;;;;;;27.37;15.43;;;;;;;;;;10544033;28;20200;-81
2021/03/09 23:42:18;;;;;;;27.07;15.30;;;;;;;;;;10554887;28;20268;-81
2021/03/09 23:47:20;;;;;;;27.37;16.13;;;;;;;;;;10551605;28;20285;-81
2021/03/09 23:52:22;;;;;;;26.60;15.93;;;;;;;;;;10570357;28;20216;-80
2021/03/09 23:57:24;;;;;;;20.77;11.53;;;;;;;;;;10566164;28;20196;-81
